sensor_id;sensor_type;location;lat;lon;timestamp;temperature;humidity
63013;DHT22;62113;45.624;11.700;2023-12-28T00:00:42;12.20;69.80
63013;DHT22;62113;45.624;11.700;2023-12-28T00:03:08;12.20;69.80
63013;DHT22;62113;45.624;11.700;2023-12-28T00:05:33;12.20;69.80
63013;DHT22;62113;45.624;11.700;2023-12-28T00:07:59;12.20;69.70
63013;DHT22;62113;45.624;11.700;2023-12-28T00:10:26;12.20;69.70
63013;DHT22;62113;45.624;11.700;2023-12-28T00:12:52;12.20;69.70
63013;DHT22;62113;45.624;11.700;2023-12-28T00:15:17;12.20;69.70
63013;DHT22;62113;45.624;11.700;2023-12-28T00:17:43;12.20;69.70
63013;DHT22;62113;45.624;11.700;2023-12-28T00:20:09;12.20;69.60
63013;DHT22;62113;45.624;11.700;2023-12-28T00:22:35;12.20;69.60
63013;DHT22;62113;45.624;11.700;2023-12-28T00:25:06;12.20;69.60
63013;DHT22;62113;45.624;11.700;2023-12-28T00:27:31;12.20;69.70
63013;DHT22;62113;45.624;11.700;2023-12-28T00:29:59;12.20;69.70
63013;DHT22;62113;45.624;11.700;2023-12-28T00:32:25;12.20;69.70
63013;DHT22;62113;45.624;11.700;2023-12-28T00:34:51;12.20;69.80
63013;DHT22;62113;45.624;11.700;2023-12-28T00:37:16;12.20;69.80
63013;DHT22;62113;45.624;11.700;2023-12-28T00:39:42;12.20;69.80
63013;DHT22;62113;45.624;11.700;2023-12-28T00:42:08;12.20;69.90
63013;DHT22;62113;45.624;11.700;2023-12-28T00:44:34;12.20;69.70
63013;DHT22;62113;45.624;11.700;2023-12-28T00:46:59;12.20;69.90
63013;DHT22;62113;45.624;11.700;2023-12-28T00:49:25;12.20;69.90
63013;DHT22;62113;45.624;11.700;2023-12-28T00:51:50;12.20;69.90
63013;DHT22;62113;45.624;11.700;2023-12-28T00:54:16;12.20;70.00
63013;DHT22;62113;45.624;11.700;2023-12-28T00:56:41;12.20;69.90
63013;DHT22;62113;45.624;11.700;2023-12-28T00:59:07;12.20;69.80
63013;DHT22;62113;45.624;11.700;2023-12-28T01:01:33;12.20;69.80
63013;DHT22;62113;45.624;11.700;2023-12-28T01:03:58;12.20;69.90
63013;DHT22;62113;45.624;11.700;2023-12-28T01:06:24;12.20;69.80
63013;DHT22;62113;45.624;11.700;2023-12-28T01:08:54;12.20;69.70
63013;DHT22;62113;45.624;11.700;2023-12-28T01:11:20;12.20;69.70
63013;DHT22;62113;45.624;11.700;2023-12-28T01:13:46;12.20;69.80
63013;DHT22;62113;45.624;11.700;2023-12-28T01:16:14;12.20;69.70
63013;DHT22;62113;45.624;11.700;2023-12-28T01:18:40;12.20;69.80
63013;DHT22;62113;45.624;11.700;2023-12-28T01:21:05;12.20;69.90
63013;DHT22;62113;45.624;11.700;2023-12-28T01:23:31;12.20;70.10
63013;DHT22;62113;45.624;11.700;2023-12-28T01:25:57;12.20;70.00
63013;DHT22;62113;45.624;11.700;2023-12-28T01:28:23;12.20;69.90
63013;DHT22;62113;45.624;11.700;2023-12-28T01:30:49;12.20;70.10
63013;DHT22;62113;45.624;11.700;2023-12-28T01:33:14;12.20;69.90
63013;DHT22;62113;45.624;11.700;2023-12-28T01:35:41;12.20;69.80
63013;DHT22;62113;45.624;11.700;2023-12-28T01:38:07;12.10;70.00
63013;DHT22;62113;45.624;11.700;2023-12-28T01:40:32;12.10;70.10
63013;DHT22;62113;45.624;11.700;2023-12-28T01:42:58;12.10;70.10
63013;DHT22;62113;45.624;11.700;2023-12-28T01:45:23;12.10;69.90
63013;DHT22;62113;45.624;11.700;2023-12-28T01:47:50;12.10;69.90
63013;DHT22;62113;45.624;11.700;2023-12-28T01:50:16;12.10;70.00
63013;DHT22;62113;45.624;11.700;2023-12-28T01:52:42;12.10;70.20
63013;DHT22;62113;45.624;11.700;2023-12-28T01:55:08;12.10;70.30
63013;DHT22;62113;45.624;11.700;2023-12-28T01:57:34;12.00;70.20
63013;DHT22;62113;45.624;11.700;2023-12-28T02:00:00;12.00;70.30
63013;DHT22;62113;45.624;11.700;2023-12-28T02:02:30;12.00;70.40
63013;DHT22;62113;45.624;11.700;2023-12-28T02:04:55;12.00;70.40
63013;DHT22;62113;45.624;11.700;2023-12-28T02:07:21;12.00;70.30
63013;DHT22;62113;45.624;11.700;2023-12-28T02:09:47;12.00;70.30
63013;DHT22;62113;45.624;11.700;2023-12-28T02:12:13;12.10;70.30
63013;DHT22;62113;45.624;11.700;2023-12-28T02:14:39;12.00;70.30
63013;DHT22;62113;45.624;11.700;2023-12-28T02:17:12;12.00;70.40
63013;DHT22;62113;45.624;11.700;2023-12-28T02:19:50;12.00;70.30
63013;DHT22;62113;45.624;11.700;2023-12-28T02:22:16;12.00;70.20
63013;DHT22;62113;45.624;11.700;2023-12-28T02:25:09;12.00;70.20
63013;DHT22;62113;45.624;11.700;2023-12-28T02:27:38;12.00;70.40
63013;DHT22;62113;45.624;11.700;2023-12-28T02:30:06;12.00;70.40
63013;DHT22;62113;45.624;11.700;2023-12-28T02:35:29;12.00;70.30
63013;DHT22;62113;45.624;11.700;2023-12-28T02:38:01;12.00;70.40
63013;DHT22;62113;45.624;11.700;2023-12-28T02:40:27;12.00;70.40
63013;DHT22;62113;45.624;11.700;2023-12-28T02:42:53;12.00;70.30
63013;DHT22;62113;45.624;11.700;2023-12-28T02:45:19;12.00;70.40
63013;DHT22;62113;45.624;11.700;2023-12-28T02:47:45;12.00;70.40
63013;DHT22;62113;45.624;11.700;2023-12-28T02:50:11;12.00;70.40
63013;DHT22;62113;45.624;11.700;2023-12-28T02:52:36;12.00;70.20
63013;DHT22;62113;45.624;11.700;2023-12-28T02:55:02;12.00;70.30
63013;DHT22;62113;45.624;11.700;2023-12-28T02:57:28;12.00;70.30
63013;DHT22;62113;45.624;11.700;2023-12-28T02:59:54;12.00;70.40
63013;DHT22;62113;45.624;11.700;2023-12-28T03:02:22;12.00;70.30
63013;DHT22;62113;45.624;11.700;2023-12-28T03:04:48;12.00;69.90
63013;DHT22;62113;45.624;11.700;2023-12-28T03:07:13;11.90;69.90
63013;DHT22;62113;45.624;11.700;2023-12-28T03:09:39;11.90;70.10
63013;DHT22;62113;45.624;11.700;2023-12-28T03:12:05;11.90;70.20
63013;DHT22;62113;45.624;11.700;2023-12-28T03:14:32;12.00;70.30
63013;DHT22;62113;45.624;11.700;2023-12-28T03:16:57;11.90;70.40
63013;DHT22;62113;45.624;11.700;2023-12-28T03:19:23;11.90;70.30
63013;DHT22;62113;45.624;11.700;2023-12-28T03:21:48;11.90;70.30
63013;DHT22;62113;45.624;11.700;2023-12-28T03:24:14;11.90;70.30
63013;DHT22;62113;45.624;11.700;2023-12-28T03:26:40;12.00;70.40
63013;DHT22;62113;45.624;11.700;2023-12-28T03:29:06;12.00;70.40
63013;DHT22;62113;45.624;11.700;2023-12-28T03:31:32;12.00;70.40
63013;DHT22;62113;45.624;11.700;2023-12-28T03:33:58;11.90;70.40
63013;DHT22;62113;45.624;11.700;2023-12-28T03:36:24;11.90;70.40
63013;DHT22;62113;45.624;11.700;2023-12-28T03:38:49;12.00;70.30
63013;DHT22;62113;45.624;11.700;2023-12-28T03:41:18;12.00;70.30
63013;DHT22;62113;45.624;11.700;2023-12-28T03:43:45;12.00;70.40
63013;DHT22;62113;45.624;11.700;2023-12-28T03:46:11;12.00;70.40
63013;DHT22;62113;45.624;11.700;2023-12-28T03:48:37;12.00;70.50
63013;DHT22;62113;45.624;11.700;2023-12-28T03:51:03;12.00;70.50
63013;DHT22;62113;45.624;11.700;2023-12-28T03:53:29;12.00;70.50
63013;DHT22;62113;45.624;11.700;2023-12-28T03:55:54;12.00;70.40
63013;DHT22;62113;45.624;11.700;2023-12-28T03:58:20;12.00;70.40
63013;DHT22;62113;45.624;11.700;2023-12-28T04:00:45;12.00;70.30
63013;DHT22;62113;45.624;11.700;2023-12-28T04:03:11;12.00;70.20
63013;DHT22;62113;45.624;11.700;2023-12-28T04:05:36;12.00;70.20
63013;DHT22;62113;45.624;11.700;2023-12-28T04:08:02;12.00;70.10
63013;DHT22;62113;45.624;11.700;2023-12-28T04:10:31;12.00;70.10
63013;DHT22;62113;45.624;11.700;2023-12-28T04:12:57;12.00;70.10
63013;DHT22;62113;45.624;11.700;2023-12-28T04:15:25;12.00;70.20
63013;DHT22;62113;45.624;11.700;2023-12-28T04:17:51;12.00;70.10
63013;DHT22;62113;45.624;11.700;2023-12-28T04:20:16;12.10;70.20
63013;DHT22;62113;45.624;11.700;2023-12-28T04:22:42;12.00;70.10
63013;DHT22;62113;45.624;11.700;2023-12-28T04:25:09;12.10;70.20
63013;DHT22;62113;45.624;11.700;2023-12-28T04:27:35;12.10;70.20
63013;DHT22;62113;45.624;11.700;2023-12-28T04:30:01;12.10;70.20
63013;DHT22;62113;45.624;11.700;2023-12-28T04:32:26;12.10;70.10
63013;DHT22;62113;45.624;11.700;2023-12-28T04:34:53;12.10;70.00
63013;DHT22;62113;45.624;11.700;2023-12-28T04:37:19;12.00;70.10
63013;DHT22;62113;45.624;11.700;2023-12-28T04:39:45;12.10;70.10
63013;DHT22;62113;45.624;11.700;2023-12-28T04:42:11;12.00;70.10
63013;DHT22;62113;45.624;11.700;2023-12-28T04:44:40;12.00;70.10
63013;DHT22;62113;45.624;11.700;2023-12-28T04:47:06;12.00;70.10
63013;DHT22;62113;45.624;11.700;2023-12-28T04:49:31;12.00;70.10
63013;DHT22;62113;45.624;11.700;2023-12-28T04:51:57;12.00;70.10
63013;DHT22;62113;45.624;11.700;2023-12-28T04:54:23;12.00;70.10
63013;DHT22;62113;45.624;11.700;2023-12-28T04:56:48;12.00;70.10
63013;DHT22;62113;45.624;11.700;2023-12-28T04:59:14;12.00;70.00
63013;DHT22;62113;45.624;11.700;2023-12-28T05:01:43;12.00;70.00
63013;DHT22;62113;45.624;11.700;2023-12-28T05:04:10;12.00;70.00
63013;DHT22;62113;45.624;11.700;2023-12-28T05:06:36;12.00;70.10
63013;DHT22;62113;45.624;11.700;2023-12-28T05:09:01;12.00;70.10
63013;DHT22;62113;45.624;11.700;2023-12-28T05:11:27;12.00;70.10
63013;DHT22;62113;45.624;11.700;2023-12-28T05:13:53;12.00;70.10
63013;DHT22;62113;45.624;11.700;2023-12-28T05:16:19;12.00;70.20
63013;DHT22;62113;45.624;11.700;2023-12-28T05:18:48;12.00;70.20
63013;DHT22;62113;45.624;11.700;2023-12-28T05:21:13;12.00;70.30
63013;DHT22;62113;45.624;11.700;2023-12-28T05:23:39;12.00;70.20
63013;DHT22;62113;45.624;11.700;2023-12-28T05:26:05;12.00;70.10
63013;DHT22;62113;45.624;11.700;2023-12-28T05:28:31;12.00;70.20
63013;DHT22;62113;45.624;11.700;2023-12-28T05:30:58;12.00;70.20
63013;DHT22;62113;45.624;11.700;2023-12-28T05:33:26;12.00;70.30
63013;DHT22;62113;45.624;11.700;2023-12-28T05:35:52;12.00;70.30
63013;DHT22;62113;45.624;11.700;2023-12-28T05:38:17;12.00;70.20
63013;DHT22;62113;45.624;11.700;2023-12-28T05:40:44;12.00;70.10
63013;DHT22;62113;45.624;11.700;2023-12-28T05:43:12;12.00;70.20
63013;DHT22;62113;45.624;11.700;2023-12-28T05:45:38;11.90;70.20
63013;DHT22;62113;45.624;11.700;2023-12-28T05:48:03;12.00;70.20
63013;DHT22;62113;45.624;11.700;2023-12-28T05:50:29;12.00;70.20
63013;DHT22;62113;45.624;11.700;2023-12-28T05:52:55;12.00;70.20
63013;DHT22;62113;45.624;11.700;2023-12-28T05:55:20;12.00;70.20
63013;DHT22;62113;45.624;11.700;2023-12-28T05:57:46;12.00;70.10
63013;DHT22;62113;45.624;11.700;2023-12-28T06:00:13;11.90;70.20
63013;DHT22;62113;45.624;11.700;2023-12-28T06:02:40;11.90;70.20
63013;DHT22;62113;45.624;11.700;2023-12-28T06:05:06;11.90;70.20
63013;DHT22;62113;45.624;11.700;2023-12-28T06:07:31;11.90;70.10
63013;DHT22;62113;45.624;11.700;2023-12-28T06:09:57;12.00;70.20
63013;DHT22;62113;45.624;11.700;2023-12-28T06:12:23;12.00;70.10
63013;DHT22;62113;45.624;11.700;2023-12-28T06:14:48;12.00;70.20
63013;DHT22;62113;45.624;11.700;2023-12-28T06:17:14;12.00;70.20
63013;DHT22;62113;45.624;11.700;2023-12-28T06:19:41;12.00;70.20
63013;DHT22;62113;45.624;11.700;2023-12-28T06:22:06;11.90;70.20
63013;DHT22;62113;45.624;11.700;2023-12-28T06:24:32;11.90;70.10
63013;DHT22;62113;45.624;11.700;2023-12-28T06:26:58;12.00;70.10
63013;DHT22;62113;45.624;11.700;2023-12-28T06:29:23;12.00;70.10
63013;DHT22;62113;45.624;11.700;2023-12-28T06:31:49;12.00;70.10
63013;DHT22;62113;45.624;11.700;2023-12-28T06:34:14;12.00;70.10
63013;DHT22;62113;45.624;11.700;2023-12-28T06:36:41;12.00;70.10
63013;DHT22;62113;45.624;11.700;2023-12-28T06:39:06;12.00;70.10
63013;DHT22;62113;45.624;11.700;2023-12-28T06:41:32;12.00;70.00
63013;DHT22;62113;45.624;11.700;2023-12-28T06:43:57;12.00;70.00
63013;DHT22;62113;45.624;11.700;2023-12-28T06:46:23;12.00;70.00
63013;DHT22;62113;45.624;11.700;2023-12-28T06:48:49;12.00;70.00
63013;DHT22;62113;45.624;11.700;2023-12-28T06:51:18;12.00;70.00
63013;DHT22;62113;45.624;11.700;2023-12-28T06:53:44;12.00;70.00
63013;DHT22;62113;45.624;11.700;2023-12-28T06:56:10;12.00;70.00
63013;DHT22;62113;45.624;11.700;2023-12-28T06:58:35;12.00;69.90
63013;DHT22;62113;45.624;11.700;2023-12-28T07:01:04;12.00;69.90
63013;DHT22;62113;45.624;11.700;2023-12-28T07:03:30;12.00;69.90
63013;DHT22;62113;45.624;11.700;2023-12-28T07:06:01;12.00;70.00
63013;DHT22;62113;45.624;11.700;2023-12-28T07:08:27;12.00;70.00
63013;DHT22;62113;45.624;11.700;2023-12-28T07:10:52;12.10;69.90
63013;DHT22;62113;45.624;11.700;2023-12-28T07:13:18;12.20;69.80
63013;DHT22;62113;45.624;11.700;2023-12-28T07:15:43;12.20;69.80
63013;DHT22;62113;45.624;11.700;2023-12-28T07:18:09;12.20;69.70
63013;DHT22;62113;45.624;11.700;2023-12-28T07:20:35;12.20;69.60
63013;DHT22;62113;45.624;11.700;2023-12-28T07:23:00;12.20;69.50
63013;DHT22;62113;45.624;11.700;2023-12-28T07:25:26;12.20;69.40
63013;DHT22;62113;45.624;11.700;2023-12-28T07:27:51;12.20;69.40
63013;DHT22;62113;45.624;11.700;2023-12-28T07:30:17;12.20;69.40
63013;DHT22;62113;45.624;11.700;2023-12-28T07:32:43;12.20;69.30
63013;DHT22;62113;45.624;11.700;2023-12-28T07:35:10;12.20;69.30
63013;DHT22;62113;45.624;11.700;2023-12-28T07:37:35;12.20;69.30
63013;DHT22;62113;45.624;11.700;2023-12-28T07:40:01;12.20;69.30
63013;DHT22;62113;45.624;11.700;2023-12-28T07:42:28;12.30;69.40
63013;DHT22;62113;45.624;11.700;2023-12-28T07:44:54;12.20;69.30
63013;DHT22;62113;45.624;11.700;2023-12-28T07:47:20;12.30;69.30
63013;DHT22;62113;45.624;11.700;2023-12-28T07:49:45;12.20;69.40
63013;DHT22;62113;45.624;11.700;2023-12-28T07:52:11;12.20;69.40
63013;DHT22;62113;45.624;11.700;2023-12-28T07:54:37;12.30;69.40
63013;DHT22;62113;45.624;11.700;2023-12-28T07:57:03;12.30;69.40
63013;DHT22;62113;45.624;11.700;2023-12-28T07:59:28;12.30;69.30
63013;DHT22;62113;45.624;11.700;2023-12-28T08:01:55;12.30;69.30
63013;DHT22;62113;45.624;11.700;2023-12-28T08:04:20;12.30;69.30
63013;DHT22;62113;45.624;11.700;2023-12-28T08:06:46;12.30;69.20
63013;DHT22;62113;45.624;11.700;2023-12-28T08:09:12;12.30;69.30
63013;DHT22;62113;45.624;11.700;2023-12-28T08:11:37;12.30;69.20
63013;DHT22;62113;45.624;11.700;2023-12-28T08:14:03;12.30;69.20
63013;DHT22;62113;45.624;11.700;2023-12-28T08:16:29;12.30;69.10
63013;DHT22;62113;45.624;11.700;2023-12-28T08:18:54;12.40;69.20
63013;DHT22;62113;45.624;11.700;2023-12-28T08:21:20;12.40;69.30
63013;DHT22;62113;45.624;11.700;2023-12-28T08:23:46;12.40;69.30
63013;DHT22;62113;45.624;11.700;2023-12-28T08:26:11;12.40;69.30
63013;DHT22;62113;45.624;11.700;2023-12-28T08:28:37;12.40;69.40
63013;DHT22;62113;45.624;11.700;2023-12-28T08:31:03;12.40;69.40
63013;DHT22;62113;45.624;11.700;2023-12-28T08:33:29;12.50;69.40
63013;DHT22;62113;45.624;11.700;2023-12-28T08:35:54;12.50;69.40
63013;DHT22;62113;45.624;11.700;2023-12-28T08:38:20;12.50;69.50
63013;DHT22;62113;45.624;11.700;2023-12-28T08:40:45;12.50;69.50
63013;DHT22;62113;45.624;11.700;2023-12-28T08:43:11;12.50;69.60
63013;DHT22;62113;45.624;11.700;2023-12-28T08:45:37;12.50;69.50
63013;DHT22;62113;45.624;11.700;2023-12-28T08:48:03;12.60;69.50
63013;DHT22;62113;45.624;11.700;2023-12-28T08:50:29;12.60;69.60
63013;DHT22;62113;45.624;11.700;2023-12-28T08:52:54;12.60;69.60
63013;DHT22;62113;45.624;11.700;2023-12-28T08:55:21;12.60;69.50
63013;DHT22;62113;45.624;11.700;2023-12-28T08:57:47;12.70;69.40
63013;DHT22;62113;45.624;11.700;2023-12-28T09:00:13;12.70;69.50
63013;DHT22;62113;45.624;11.700;2023-12-28T09:02:40;12.70;69.40
63013;DHT22;62113;45.624;11.700;2023-12-28T09:05:06;12.70;69.20
63013;DHT22;62113;45.624;11.700;2023-12-28T09:07:32;12.70;69.20
63013;DHT22;62113;45.624;11.700;2023-12-28T09:09:58;12.70;69.10
63013;DHT22;62113;45.624;11.700;2023-12-28T09:12:24;12.80;69.10
63013;DHT22;62113;45.624;11.700;2023-12-28T09:14:49;12.80;69.00
63013;DHT22;62113;45.624;11.700;2023-12-28T09:17:21;12.80;68.90
63013;DHT22;62113;45.624;11.700;2023-12-28T09:19:47;12.90;68.80
63013;DHT22;62113;45.624;11.700;2023-12-28T09:22:13;12.90;68.60
63013;DHT22;62113;45.624;11.700;2023-12-28T09:24:38;12.90;68.30
63013;DHT22;62113;45.624;11.700;2023-12-28T09:27:05;12.90;68.40
63013;DHT22;62113;45.624;11.700;2023-12-28T09:29:31;13.00;67.90
63013;DHT22;62113;45.624;11.700;2023-12-28T09:31:56;13.00;67.90
63013;DHT22;62113;45.624;11.700;2023-12-28T09:34:22;13.00;67.60
63013;DHT22;62113;45.624;11.700;2023-12-28T09:36:48;13.10;67.30
63013;DHT22;62113;45.624;11.700;2023-12-28T09:39:13;13.00;67.40
63013;DHT22;62113;45.624;11.700;2023-12-28T09:41:43;13.10;66.90
63013;DHT22;62113;45.624;11.700;2023-12-28T09:44:15;13.10;66.50
63013;DHT22;62113;45.624;11.700;2023-12-28T09:46:43;13.10;66.60
63013;DHT22;62113;45.624;11.700;2023-12-28T09:49:11;13.20;66.70
63013;DHT22;62113;45.624;11.700;2023-12-28T09:51:37;13.20;66.00
63013;DHT22;62113;45.624;11.700;2023-12-28T09:54:03;13.20;65.80
63013;DHT22;62113;45.624;11.700;2023-12-28T09:56:31;13.20;65.70
63013;DHT22;62113;45.624;11.700;2023-12-28T09:58:57;13.20;66.00
63013;DHT22;62113;45.624;11.700;2023-12-28T10:01:23;13.30;65.20
63013;DHT22;62113;45.624;11.700;2023-12-28T10:03:49;13.20;65.10
63013;DHT22;62113;45.624;11.700;2023-12-28T10:06:15;13.30;65.00
63013;DHT22;62113;45.624;11.700;2023-12-28T10:08:45;13.30;64.50
63013;DHT22;62113;45.624;11.700;2023-12-28T10:11:16;13.30;63.90
63013;DHT22;62113;45.624;11.700;2023-12-28T10:13:42;13.30;64.20
63013;DHT22;62113;45.624;11.700;2023-12-28T10:16:10;13.30;61.60
63013;DHT22;62113;45.624;11.700;2023-12-28T10:18:36;13.30;62.70
63013;DHT22;62113;45.624;11.700;2023-12-28T10:21:02;13.30;62.70
63013;DHT22;62113;45.624;11.700;2023-12-28T10:23:28;13.40;63.50
63013;DHT22;62113;45.624;11.700;2023-12-28T10:25:56;13.40;63.70
63013;DHT22;62113;45.624;11.700;2023-12-28T10:28:22;13.50;63.60
63013;DHT22;62113;45.624;11.700;2023-12-28T10:30:54;13.50;63.30
63013;DHT22;62113;45.624;11.700;2023-12-28T10:33:20;13.60;62.80
63013;DHT22;62113;45.624;11.700;2023-12-28T10:35:46;13.60;63.30
63013;DHT22;62113;45.624;11.700;2023-12-28T10:38:13;13.60;63.10
63013;DHT22;62113;45.624;11.700;2023-12-28T10:40:42;13.70;61.90
63013;DHT22;62113;45.624;11.700;2023-12-28T10:43:10;13.70;62.00
63013;DHT22;62113;45.624;11.700;2023-12-28T10:45:39;13.70;62.40
63013;DHT22;62113;45.624;11.700;2023-12-28T10:50:41;13.70;62.20
63013;DHT22;62113;45.624;11.700;2023-12-28T10:58:48;13.80;62.40
63013;DHT22;62113;45.624;11.700;2023-12-28T11:01:21;13.90;62.40
63013;DHT22;62113;45.624;11.700;2023-12-28T11:03:53;13.90;59.60
63013;DHT22;62113;45.624;11.700;2023-12-28T11:06:23;13.80;61.40
63013;DHT22;62113;45.624;11.700;2023-12-28T11:08:51;13.90;61.30
63013;DHT22;62113;45.624;11.700;2023-12-28T11:11:19;13.80;60.10
63013;DHT22;62113;45.624;11.700;2023-12-28T11:13:47;13.80;60.70
63013;DHT22;62113;45.624;11.700;2023-12-28T11:16:14;13.90;61.00
63013;DHT22;62113;45.624;11.700;2023-12-28T11:18:40;13.90;61.40
63013;DHT22;62113;45.624;11.700;2023-12-28T11:21:06;13.90;61.60
63013;DHT22;62113;45.624;11.700;2023-12-28T11:23:33;13.90;61.30
63013;DHT22;62113;45.624;11.700;2023-12-28T11:25:58;14.00;61.50
63013;DHT22;62113;45.624;11.700;2023-12-28T11:28:24;14.00;61.70
63013;DHT22;62113;45.624;11.700;2023-12-28T11:30:51;13.90;61.70
63013;DHT22;62113;45.624;11.700;2023-12-28T11:33:17;14.00;61.50
63013;DHT22;62113;45.624;11.700;2023-12-28T11:35:47;14.00;61.50
63013;DHT22;62113;45.624;11.700;2023-12-28T11:38:15;14.00;61.70
63013;DHT22;62113;45.624;11.700;2023-12-28T11:40:45;14.00;61.60
63013;DHT22;62113;45.624;11.700;2023-12-28T11:43:19;14.00;61.70
63013;DHT22;62113;45.624;11.700;2023-12-28T11:45:54;14.00;61.80
63013;DHT22;62113;45.624;11.700;2023-12-28T11:48:27;14.00;61.60
63013;DHT22;62113;45.624;11.700;2023-12-28T11:51:00;14.10;61.40
63013;DHT22;62113;45.624;11.700;2023-12-28T11:53:26;14.10;61.30
63013;DHT22;62113;45.624;11.700;2023-12-28T11:55:52;14.10;61.30
63013;DHT22;62113;45.624;11.700;2023-12-28T11:58:18;14.10;61.10
63013;DHT22;62113;45.624;11.700;2023-12-28T12:00:44;14.20;61.60
63013;DHT22;62113;45.624;11.700;2023-12-28T12:03:11;14.10;61.60
63013;DHT22;62113;45.624;11.700;2023-12-28T12:05:37;14.10;61.60
63013;DHT22;62113;45.624;11.700;2023-12-28T12:08:03;14.20;61.50
63013;DHT22;62113;45.624;11.700;2023-12-28T12:10:29;14.20;61.60
63013;DHT22;62113;45.624;11.700;2023-12-28T12:12:55;14.20;61.80
63013;DHT22;62113;45.624;11.700;2023-12-28T12:15:21;14.20;61.60
63013;DHT22;62113;45.624;11.700;2023-12-28T12:17:46;14.20;61.00
63013;DHT22;62113;45.624;11.700;2023-12-28T12:20:14;14.20;61.20
63013;DHT22;62113;45.624;11.700;2023-12-28T12:22:40;14.20;61.20
63013;DHT22;62113;45.624;11.700;2023-12-28T12:25:06;14.20;61.20
63013;DHT22;62113;45.624;11.700;2023-12-28T12:27:33;14.20;61.00
63013;DHT22;62113;45.624;11.700;2023-12-28T12:29:59;14.30;61.10
63013;DHT22;62113;45.624;11.700;2023-12-28T12:32:25;14.30;61.10
63013;DHT22;62113;45.624;11.700;2023-12-28T12:34:52;14.30;61.20
63013;DHT22;62113;45.624;11.700;2023-12-28T12:37:17;14.40;60.90
63013;DHT22;62113;45.624;11.700;2023-12-28T12:39:43;14.30;61.00
63013;DHT22;62113;45.624;11.700;2023-12-28T12:42:13;14.40;60.70
63013;DHT22;62113;45.624;11.700;2023-12-28T12:44:39;14.40;60.40
63013;DHT22;62113;45.624;11.700;2023-12-28T12:47:05;14.40;60.30
63013;DHT22;62113;45.624;11.700;2023-12-28T12:49:31;14.50;60.20
63013;DHT22;62113;45.624;11.700;2023-12-28T12:51:57;14.50;60.50
63013;DHT22;62113;45.624;11.700;2023-12-28T12:54:22;14.50;60.70
63013;DHT22;62113;45.624;11.700;2023-12-28T12:56:50;14.50;60.70
63013;DHT22;62113;45.624;11.700;2023-12-28T12:59:16;14.60;60.50
63013;DHT22;62113;45.624;11.700;2023-12-28T13:01:44;14.70;60.50
63013;DHT22;62113;45.624;11.700;2023-12-28T13:04:10;14.70;60.10
63013;DHT22;62113;45.624;11.700;2023-12-28T13:06:37;14.90;60.10
63013;DHT22;62113;45.624;11.700;2023-12-28T13:09:02;15.00;59.90
63013;DHT22;62113;45.624;11.700;2023-12-28T13:11:28;15.00;59.90
63013;DHT22;62113;45.624;11.700;2023-12-28T13:13:54;15.10;59.80
63013;DHT22;62113;45.624;11.700;2023-12-28T13:16:19;15.10;59.10
63013;DHT22;62113;45.624;11.700;2023-12-28T13:18:45;15.10;59.20
63013;DHT22;62113;45.624;11.700;2023-12-28T13:21:10;15.10;59.30
63013;DHT22;62113;45.624;11.700;2023-12-28T13:23:36;14.80;60.00
63013;DHT22;62113;45.624;11.700;2023-12-28T13:26:02;14.60;60.70
63013;DHT22;62113;45.624;11.700;2023-12-28T13:28:27;14.50;60.80
63013;DHT22;62113;45.624;11.700;2023-12-28T13:30:53;14.50;61.10
63013;DHT22;62113;45.624;11.700;2023-12-28T13:33:21;14.50;60.90
63013;DHT22;62113;45.624;11.700;2023-12-28T13:35:47;14.40;60.70
63013;DHT22;62113;45.624;11.700;2023-12-28T13:38:13;14.40;60.60
63013;DHT22;62113;45.624;11.700;2023-12-28T13:40:38;14.40;60.20
63013;DHT22;62113;45.624;11.700;2023-12-28T13:43:04;14.40;60.50
63013;DHT22;62113;45.624;11.700;2023-12-28T13:45:29;14.30;60.00
63013;DHT22;62113;45.624;11.700;2023-12-28T13:47:55;14.30;60.00
63013;DHT22;62113;45.624;11.700;2023-12-28T13:50:21;14.20;60.30
63013;DHT22;62113;45.624;11.700;2023-12-28T13:52:46;14.20;60.20
63013;DHT22;62113;45.624;11.700;2023-12-28T13:55:12;14.20;60.40
63013;DHT22;62113;45.624;11.700;2023-12-28T13:57:38;14.20;60.10
63013;DHT22;62113;45.624;11.700;2023-12-28T14:00:04;14.20;60.10
63013;DHT22;62113;45.624;11.700;2023-12-28T14:02:31;14.20;60.50
63013;DHT22;62113;45.624;11.700;2023-12-28T14:04:56;14.20;60.50
63013;DHT22;62113;45.624;11.700;2023-12-28T14:07:25;14.20;60.90
63013;DHT22;62113;45.624;11.700;2023-12-28T14:09:51;14.30;60.60
63013;DHT22;62113;45.624;11.700;2023-12-28T14:12:16;14.30;60.70
63013;DHT22;62113;45.624;11.700;2023-12-28T14:14:42;14.20;60.30
63013;DHT22;62113;45.624;11.700;2023-12-28T14:17:08;14.10;61.10
63013;DHT22;62113;45.624;11.700;2023-12-28T14:19:33;14.00;61.30
63013;DHT22;62113;45.624;11.700;2023-12-28T14:21:59;14.00;61.30
63013;DHT22;62113;45.624;11.700;2023-12-28T14:24:25;14.00;61.40
63013;DHT22;62113;45.624;11.700;2023-12-28T14:26:54;14.00;61.60
63013;DHT22;62113;45.624;11.700;2023-12-28T14:29:20;14.00;61.50
63013;DHT22;62113;45.624;11.700;2023-12-28T14:31:46;13.90;61.70
63013;DHT22;62113;45.624;11.700;2023-12-28T14:34:13;13.90;61.70
63013;DHT22;62113;45.624;11.700;2023-12-28T14:36:39;13.90;61.90
63013;DHT22;62113;45.624;11.700;2023-12-28T14:39:06;13.90;62.00
63013;DHT22;62113;45.624;11.700;2023-12-28T14:41:36;13.80;62.00
63013;DHT22;62113;45.624;11.700;2023-12-28T14:44:02;13.80;62.10
63013;DHT22;62113;45.624;11.700;2023-12-28T14:46:28;13.80;62.00
63013;DHT22;62113;45.624;11.700;2023-12-28T14:48:55;13.80;62.10
63013;DHT22;62113;45.624;11.700;2023-12-28T14:51:21;13.80;61.80
63013;DHT22;62113;45.624;11.700;2023-12-28T14:53:47;13.70;61.60
63013;DHT22;62113;45.624;11.700;2023-12-28T14:56:13;13.70;62.00
63013;DHT22;62113;45.624;11.700;2023-12-28T14:58:39;13.70;62.10
63013;DHT22;62113;45.624;11.700;2023-12-28T15:01:06;13.70;61.90
63013;DHT22;62113;45.624;11.700;2023-12-28T15:03:31;13.70;62.10
63013;DHT22;62113;45.624;11.700;2023-12-28T15:05:57;13.70;62.00
63013;DHT22;62113;45.624;11.700;2023-12-28T15:08:25;13.70;61.70
63013;DHT22;62113;45.624;11.700;2023-12-28T15:10:51;13.60;62.00
63013;DHT22;62113;45.624;11.700;2023-12-28T15:13:17;13.60;61.90
63013;DHT22;62113;45.624;11.700;2023-12-28T15:15:44;13.50;61.90
63013;DHT22;62113;45.624;11.700;2023-12-28T15:18:10;13.50;62.00
63013;DHT22;62113;45.624;11.700;2023-12-28T15:20:36;13.50;62.10